Aeroporto :
LOGIN :

Iscrizione | Disclaimer

   EN    FR    IT 

 










Sommario :    VFR   VFR Marginale   IFR   IFR Intensivo   IFR Molto Intensivo
Visibilità : 
Base nubi : 
>= 8 km
>= 3000ft
5 / 8 km
1000 / 3000 ft
1500m / 5 km
500 / 1000 ft
800 / 1500m
200 / 500 ft
< 800m
< 200 ft
Simboli :   Temporali  Nebbia  Neve Forte  Precipitazioni Forti  Vento > 20 kt
SIGMETs :   Varie  Temporali  Ghiacco  Turbolenza  Onda orograficha  Ceneri Vulcaniche






- Altitudine del aeroporto : 529 ft
- Codice IATA : CHR


LFLX - Chateauroux

ULTIMO METAR :
  • 030000Z AUTO 20004KT CAVOK 15/12 Q1011 NOSIG

METARs OBSOLETI :
  • 022330Z AUTO VRB02KT CAVOK 15/13 Q1011 NOSIG
  • 022300Z AUTO 00000KT CAVOK 15/13 Q1011 NOSIG
  • 022230Z AUTO 23002KT CAVOK 17/13 Q1012 NOSIG
  • 022200Z AUTO 28002KT CAVOK 17/13 Q1012 NOSIG
  • 022130Z AUTO 34002KT CAVOK 17/13 Q1012 NOSIG

TAF TAF LFLX
Valido dal 03 a 00 ore il 04 a 06 ore UTC


022300Z 0300/0406 VRB04KT CAVOK
BECMG 0307/0310 9999 SCT070 SCT080TCU
TEMPO 0310/0406 -SHRA SCT050CB
PROB40
TEMPO 0313/0321 36015G27KT 1500 TSRA BKN050



MetMap, La meteo Aeronautica in un colpo d'occhio ! - Copyright ORBIFLY Dicembre 2007 - Disclaimer

ORBIFLY MET'MAP TEAM :

Programmazione e sviluppo : Alexandra Zaïnal
Concezione : Baudouin d'Aumeries
Aiuto per la programmazione : Marc-Olivier Méhu
Supporto tecnico e logistico : Manuel Goepfert
Aiuto per la traduzione : Arnaldo La Scala

Contatto : metmap@orbifly.com




FONTI E CREDITI :

   NOAA